sensor_id;sensor_type;location;lat;lon;timestamp;P1;durP1;ratioP1;P2;durP2;ratioP2
13999;SDS011;7075;53.574;10.054;2023-09-12T00:00:17;28.37;;;24.47;;
13999;SDS011;7075;53.574;10.054;2023-09-12T00:02:46;31.37;;;24.87;;
13999;SDS011;7075;53.574;10.054;2023-09-12T00:05:12;33.53;;;25.07;;
13999;SDS011;7075;53.574;10.054;2023-09-12T00:07:39;35.30;;;26.00;;
13999;SDS011;7075;53.574;10.054;2023-09-12T00:10:05;30.73;;;25.10;;
13999;SDS011;7075;53.574;10.054;2023-09-12T00:12:31;32.37;;;26.33;;
13999;SDS011;7075;53.574;10.054;2023-09-12T00:14:57;37.67;;;28.90;;
13999;SDS011;7075;53.574;10.054;2023-09-12T00:17:24;32.13;;;27.27;;
13999;SDS011;7075;53.574;10.054;2023-09-12T00:19:51;37.20;;;30.00;;
13999;SDS011;7075;53.574;10.054;2023-09-12T00:22:18;38.93;;;32.90;;
13999;SDS011;7075;53.574;10.054;2023-09-12T00:24:45;41.40;;;30.00;;
13999;SDS011;7075;53.574;10.054;2023-09-12T00:27:11;34.37;;;28.07;;
13999;SDS011;7075;53.574;10.054;2023-09-12T00:29:37;39.90;;;28.53;;
13999;SDS011;7075;53.574;10.054;2023-09-12T00:32:04;34.23;;;26.17;;
13999;SDS011;7075;53.574;10.054;2023-09-12T00:34:31;40.83;;;28.17;;
13999;SDS011;7075;53.574;10.054;2023-09-12T00:36:57;42.27;;;29.87;;
13999;SDS011;7075;53.574;10.054;2023-09-12T00:39:23;41.00;;;29.13;;
13999;SDS011;7075;53.574;10.054;2023-09-12T00:41:49;39.90;;;29.07;;
13999;SDS011;7075;53.574;10.054;2023-09-12T00:44:16;41.60;;;26.97;;
13999;SDS011;7075;53.574;10.054;2023-09-12T00:46:42;39.90;;;26.53;;
13999;SDS011;7075;53.574;10.054;2023-09-12T00:49:09;30.63;;;24.37;;
13999;SDS011;7075;53.574;10.054;2023-09-12T00:51:36;32.33;;;22.77;;
13999;SDS011;7075;53.574;10.054;2023-09-12T00:54:04;36.37;;;24.03;;
13999;SDS011;7075;53.574;10.054;2023-09-12T00:56:30;34.00;;;22.60;;
13999;SDS011;7075;53.574;10.054;2023-09-12T00:58:57;34.33;;;22.90;;
13999;SDS011;7075;53.574;10.054;2023-09-12T01:01:23;30.93;;;22.07;;
13999;SDS011;7075;53.574;10.054;2023-09-12T01:03:49;25.97;;;20.73;;
13999;SDS011;7075;53.574;10.054;2023-09-12T01:06:16;25.33;;;19.43;;
13999;SDS011;7075;53.574;10.054;2023-09-12T01:08:45;24.00;;;18.17;;
13999;SDS011;7075;53.574;10.054;2023-09-12T01:11:12;21.23;;;17.50;;
13999;SDS011;7075;53.574;10.054;2023-09-12T01:13:39;29.40;;;19.60;;
13999;SDS011;7075;53.574;10.054;2023-09-12T01:16:05;24.80;;;17.83;;
13999;SDS011;7075;53.574;10.054;2023-09-12T01:18:31;22.70;;;15.97;;
13999;SDS011;7075;53.574;10.054;2023-09-12T01:21:05;20.50;;;16.90;;
13999;SDS011;7075;53.574;10.054;2023-09-12T01:23:47;22.60;;;17.30;;
13999;SDS011;7075;53.574;10.054;2023-09-12T01:26:23;23.43;;;16.87;;
13999;SDS011;7075;53.574;10.054;2023-09-12T01:28:54;19.67;;;14.43;;
13999;SDS011;7075;53.574;10.054;2023-09-12T01:31:22;21.13;;;14.63;;
13999;SDS011;7075;53.574;10.054;2023-09-12T01:33:49;18.87;;;15.27;;
13999;SDS011;7075;53.574;10.054;2023-09-12T01:36:15;19.27;;;15.17;;
13999;SDS011;7075;53.574;10.054;2023-09-12T01:38:42;22.00;;;16.13;;
13999;SDS011;7075;53.574;10.054;2023-09-12T01:44:12;18.67;;;14.77;;
13999;SDS011;7075;53.574;10.054;2023-09-12T01:46:40;17.87;;;13.57;;
13999;SDS011;7075;53.574;10.054;2023-09-12T01:49:07;16.80;;;12.83;;
13999;SDS011;7075;53.574;10.054;2023-09-12T01:51:34;16.57;;;14.43;;
13999;SDS011;7075;53.574;10.054;2023-09-12T01:54:01;17.60;;;12.73;;
13999;SDS011;7075;53.574;10.054;2023-09-12T01:56:28;24.33;;;15.53;;
13999;SDS011;7075;53.574;10.054;2023-09-12T01:58:56;17.67;;;12.50;;
13999;SDS011;7075;53.574;10.054;2023-09-12T02:01:22;17.33;;;12.77;;
13999;SDS011;7075;53.574;10.054;2023-09-12T02:03:49;22.20;;;13.93;;
13999;SDS011;7075;53.574;10.054;2023-09-12T02:06:15;23.27;;;16.53;;
13999;SDS011;7075;53.574;10.054;2023-09-12T02:08:42;21.67;;;15.93;;
13999;SDS011;7075;53.574;10.054;2023-09-12T02:11:08;20.73;;;15.10;;
13999;SDS011;7075;53.574;10.054;2023-09-12T02:13:34;18.83;;;16.37;;
13999;SDS011;7075;53.574;10.054;2023-09-12T02:16:01;17.20;;;13.70;;
13999;SDS011;7075;53.574;10.054;2023-09-12T02:18:28;24.17;;;17.50;;
13999;SDS011;7075;53.574;10.054;2023-09-12T02:20:54;19.03;;;16.93;;
13999;SDS011;7075;53.574;10.054;2023-09-12T02:23:22;20.13;;;15.93;;
13999;SDS011;7075;53.574;10.054;2023-09-12T02:25:48;19.67;;;15.00;;
13999;SDS011;7075;53.574;10.054;2023-09-12T02:28:14;20.10;;;15.43;;
13999;SDS011;7075;53.574;10.054;2023-09-12T02:30:42;23.23;;;16.47;;
13999;SDS011;7075;53.574;10.054;2023-09-12T02:33:08;22.00;;;16.93;;
13999;SDS011;7075;53.574;10.054;2023-09-12T02:35:34;20.10;;;17.10;;
13999;SDS011;7075;53.574;10.054;2023-09-12T02:38:00;17.77;;;14.17;;
13999;SDS011;7075;53.574;10.054;2023-09-12T02:40:27;23.23;;;18.20;;
13999;SDS011;7075;53.574;10.054;2023-09-12T02:42:53;23.90;;;16.63;;
13999;SDS011;7075;53.574;10.054;2023-09-12T02:45:19;24.83;;;15.80;;
13999;SDS011;7075;53.574;10.054;2023-09-12T02:47:45;18.63;;;15.63;;
13999;SDS011;7075;53.574;10.054;2023-09-12T02:50:11;24.17;;;17.40;;
13999;SDS011;7075;53.574;10.054;2023-09-12T02:52:37;22.73;;;15.63;;
13999;SDS011;7075;53.574;10.054;2023-09-12T02:55:03;16.83;;;14.97;;
13999;SDS011;7075;53.574;10.054;2023-09-12T02:57:29;29.83;;;19.53;;
13999;SDS011;7075;53.574;10.054;2023-09-12T02:59:58;20.00;;;16.93;;
13999;SDS011;7075;53.574;10.054;2023-09-12T03:02:24;23.10;;;16.53;;
13999;SDS011;7075;53.574;10.054;2023-09-12T03:04:50;22.77;;;18.10;;
13999;SDS011;7075;53.574;10.054;2023-09-12T03:07:16;22.47;;;17.53;;
13999;SDS011;7075;53.574;10.054;2023-09-12T03:09:43;22.10;;;16.27;;
13999;SDS011;7075;53.574;10.054;2023-09-12T03:12:09;26.07;;;19.60;;
13999;SDS011;7075;53.574;10.054;2023-09-12T03:14:35;23.80;;;19.00;;
13999;SDS011;7075;53.574;10.054;2023-09-12T03:17:01;29.20;;;19.13;;
13999;SDS011;7075;53.574;10.054;2023-09-12T03:19:29;26.17;;;18.70;;
13999;SDS011;7075;53.574;10.054;2023-09-12T03:21:55;28.17;;;21.80;;
13999;SDS011;7075;53.574;10.054;2023-09-12T03:24:21;29.87;;;21.80;;
13999;SDS011;7075;53.574;10.054;2023-09-12T03:26:49;29.83;;;22.80;;
13999;SDS011;7075;53.574;10.054;2023-09-12T03:29:16;25.03;;;21.23;;
13999;SDS011;7075;53.574;10.054;2023-09-12T03:31:42;25.37;;;20.20;;
13999;SDS011;7075;53.574;10.054;2023-09-12T03:34:08;31.10;;;22.03;;
13999;SDS011;7075;53.574;10.054;2023-09-12T03:36:34;23.63;;;20.50;;
13999;SDS011;7075;53.574;10.054;2023-09-12T03:39:00;22.90;;;18.90;;
13999;SDS011;7075;53.574;10.054;2023-09-12T03:41:27;29.30;;;23.30;;
13999;SDS011;7075;53.574;10.054;2023-09-12T03:43:54;26.97;;;21.70;;
13999;SDS011;7075;53.574;10.054;2023-09-12T03:46:20;34.03;;;23.37;;
13999;SDS011;7075;53.574;10.054;2023-09-12T03:48:47;26.60;;;20.00;;
13999;SDS011;7075;53.574;10.054;2023-09-12T03:51:14;33.23;;;24.13;;
13999;SDS011;7075;53.574;10.054;2023-09-12T03:53:40;30.77;;;23.50;;
13999;SDS011;7075;53.574;10.054;2023-09-12T03:56:06;37.47;;;26.20;;
13999;SDS011;7075;53.574;10.054;2023-09-12T03:58:32;30.70;;;24.57;;
13999;SDS011;7075;53.574;10.054;2023-09-12T04:00:58;25.00;;;19.87;;
13999;SDS011;7075;53.574;10.054;2023-09-12T04:03:24;32.93;;;24.77;;
13999;SDS011;7075;53.574;10.054;2023-09-12T04:05:51;29.47;;;23.53;;
13999;SDS011;7075;53.574;10.054;2023-09-12T04:08:17;29.33;;;25.00;;
13999;SDS011;7075;53.574;10.054;2023-09-12T04:10:43;32.73;;;25.17;;
13999;SDS011;7075;53.574;10.054;2023-09-12T04:13:09;32.43;;;24.50;;
13999;SDS011;7075;53.574;10.054;2023-09-12T04:15:35;28.30;;;19.43;;
13999;SDS011;7075;53.574;10.054;2023-09-12T04:18:01;27.13;;;20.70;;
13999;SDS011;7075;53.574;10.054;2023-09-12T04:20:27;23.63;;;19.00;;
13999;SDS011;7075;53.574;10.054;2023-09-12T04:22:54;24.53;;;20.37;;
13999;SDS011;7075;53.574;10.054;2023-09-12T04:25:20;25.50;;;19.03;;
13999;SDS011;7075;53.574;10.054;2023-09-12T04:27:46;24.30;;;18.93;;
13999;SDS011;7075;53.574;10.054;2023-09-12T04:30:12;27.47;;;21.23;;
13999;SDS011;7075;53.574;10.054;2023-09-12T04:32:38;29.93;;;22.53;;
13999;SDS011;7075;53.574;10.054;2023-09-12T04:35:05;30.97;;;20.10;;
13999;SDS011;7075;53.574;10.054;2023-09-12T04:37:31;32.60;;;24.80;;
13999;SDS011;7075;53.574;10.054;2023-09-12T04:39:57;30.60;;;23.57;;
13999;SDS011;7075;53.574;10.054;2023-09-12T04:42:23;27.93;;;23.37;;
13999;SDS011;7075;53.574;10.054;2023-09-12T04:44:49;29.37;;;22.00;;
13999;SDS011;7075;53.574;10.054;2023-09-12T04:47:15;28.07;;;20.40;;
13999;SDS011;7075;53.574;10.054;2023-09-12T04:49:43;27.43;;;20.53;;
13999;SDS011;7075;53.574;10.054;2023-09-12T04:52:09;31.13;;;24.40;;
13999;SDS011;7075;53.574;10.054;2023-09-12T04:54:35;33.03;;;25.53;;
13999;SDS011;7075;53.574;10.054;2023-09-12T04:57:02;34.23;;;26.50;;
13999;SDS011;7075;53.574;10.054;2023-09-12T04:59:28;33.23;;;25.80;;
13999;SDS011;7075;53.574;10.054;2023-09-12T05:01:54;33.30;;;25.73;;
13999;SDS011;7075;53.574;10.054;2023-09-12T05:04:20;37.13;;;28.33;;
13999;SDS011;7075;53.574;10.054;2023-09-12T05:06:46;34.33;;;26.50;;
13999;SDS011;7075;53.574;10.054;2023-09-12T05:09:13;34.80;;;26.97;;
13999;SDS011;7075;53.574;10.054;2023-09-12T05:11:39;33.90;;;29.40;;
13999;SDS011;7075;53.574;10.054;2023-09-12T05:14:05;35.20;;;27.47;;
13999;SDS011;7075;53.574;10.054;2023-09-12T05:16:31;39.40;;;28.30;;
13999;SDS011;7075;53.574;10.054;2023-09-12T05:18:57;40.37;;;29.43;;
13999;SDS011;7075;53.574;10.054;2023-09-12T05:21:23;39.03;;;29.33;;
13999;SDS011;7075;53.574;10.054;2023-09-12T05:23:50;42.00;;;32.43;;
13999;SDS011;7075;53.574;10.054;2023-09-12T05:26:16;41.27;;;30.53;;
13999;SDS011;7075;53.574;10.054;2023-09-12T05:28:42;40.03;;;32.17;;
13999;SDS011;7075;53.574;10.054;2023-09-12T05:31:08;43.10;;;31.07;;
13999;SDS011;7075;53.574;10.054;2023-09-12T05:33:34;36.87;;;27.03;;
13999;SDS011;7075;53.574;10.054;2023-09-12T05:36:01;42.27;;;31.33;;
13999;SDS011;7075;53.574;10.054;2023-09-12T05:38:28;39.73;;;27.23;;
13999;SDS011;7075;53.574;10.054;2023-09-12T05:40:54;33.83;;;25.27;;
13999;SDS011;7075;53.574;10.054;2023-09-12T05:43:20;39.30;;;26.87;;
13999;SDS011;7075;53.574;10.054;2023-09-12T05:45:48;29.47;;;23.23;;
13999;SDS011;7075;53.574;10.054;2023-09-12T05:48:14;36.90;;;27.50;;
13999;SDS011;7075;53.574;10.054;2023-09-12T05:50:41;33.80;;;26.27;;
13999;SDS011;7075;53.574;10.054;2023-09-12T05:53:09;32.67;;;23.50;;
13999;SDS011;7075;53.574;10.054;2023-09-12T05:55:36;36.10;;;26.73;;
13999;SDS011;7075;53.574;10.054;2023-09-12T05:58:02;33.33;;;26.07;;
13999;SDS011;7075;53.574;10.054;2023-09-12T06:00:30;35.57;;;25.97;;
13999;SDS011;7075;53.574;10.054;2023-09-12T06:02:58;37.23;;;28.57;;
13999;SDS011;7075;53.574;10.054;2023-09-12T06:05:24;32.47;;;25.97;;
13999;SDS011;7075;53.574;10.054;2023-09-12T06:07:51;37.53;;;29.20;;
13999;SDS011;7075;53.574;10.054;2023-09-12T06:10:18;37.07;;;27.17;;
13999;SDS011;7075;53.574;10.054;2023-09-12T06:12:43;32.63;;;25.17;;
13999;SDS011;7075;53.574;10.054;2023-09-12T06:15:10;27.17;;;22.37;;
13999;SDS011;7075;53.574;10.054;2023-09-12T06:17:36;34.80;;;26.13;;
13999;SDS011;7075;53.574;10.054;2023-09-12T06:20:02;30.47;;;25.23;;
13999;SDS011;7075;53.574;10.054;2023-09-12T06:22:31;33.07;;;24.50;;
13999;SDS011;7075;53.574;10.054;2023-09-12T06:24:57;34.43;;;26.53;;
13999;SDS011;7075;53.574;10.054;2023-09-12T06:27:23;33.00;;;25.47;;
13999;SDS011;7075;53.574;10.054;2023-09-12T06:29:49;34.93;;;26.33;;
13999;SDS011;7075;53.574;10.054;2023-09-12T06:32:19;31.57;;;23.70;;
13999;SDS011;7075;53.574;10.054;2023-09-12T06:34:45;32.30;;;26.20;;
13999;SDS011;7075;53.574;10.054;2023-09-12T06:37:12;37.67;;;26.30;;
13999;SDS011;7075;53.574;10.054;2023-09-12T06:39:38;31.40;;;25.03;;
13999;SDS011;7075;53.574;10.054;2023-09-12T06:42:04;31.17;;;22.30;;
13999;SDS011;7075;53.574;10.054;2023-09-12T06:44:30;31.30;;;24.93;;
13999;SDS011;7075;53.574;10.054;2023-09-12T06:46:56;40.37;;;28.47;;
13999;SDS011;7075;53.574;10.054;2023-09-12T06:49:23;37.90;;;27.87;;
13999;SDS011;7075;53.574;10.054;2023-09-12T06:51:49;33.83;;;25.67;;
13999;SDS011;7075;53.574;10.054;2023-09-12T06:54:15;40.87;;;28.03;;
13999;SDS011;7075;53.574;10.054;2023-09-12T06:56:41;39.80;;;29.07;;
13999;SDS011;7075;53.574;10.054;2023-09-12T06:59:07;43.17;;;29.60;;
13999;SDS011;7075;53.574;10.054;2023-09-12T07:01:34;38.90;;;29.00;;
13999;SDS011;7075;53.574;10.054;2023-09-12T07:04:00;38.70;;;27.73;;
13999;SDS011;7075;53.574;10.054;2023-09-12T07:06:28;36.27;;;28.20;;
13999;SDS011;7075;53.574;10.054;2023-09-12T07:08:54;46.00;;;28.57;;
13999;SDS011;7075;53.574;10.054;2023-09-12T07:11:20;35.93;;;26.27;;
13999;SDS011;7075;53.574;10.054;2023-09-12T07:13:46;35.70;;;23.40;;
13999;SDS011;7075;53.574;10.054;2023-09-12T07:16:12;26.20;;;21.53;;
13999;SDS011;7075;53.574;10.054;2023-09-12T07:18:38;31.70;;;23.70;;
13999;SDS011;7075;53.574;10.054;2023-09-12T07:21:05;36.47;;;26.17;;
13999;SDS011;7075;53.574;10.054;2023-09-12T07:23:33;30.97;;;23.23;;
13999;SDS011;7075;53.574;10.054;2023-09-12T07:25:59;34.53;;;25.73;;
13999;SDS011;7075;53.574;10.054;2023-09-12T07:28:26;30.27;;;23.93;;
13999;SDS011;7075;53.574;10.054;2023-09-12T07:30:52;37.27;;;26.87;;
13999;SDS011;7075;53.574;10.054;2023-09-12T07:33:18;75.10;;;37.70;;
13999;SDS011;7075;53.574;10.054;2023-09-12T07:35:46;42.63;;;26.87;;
13999;SDS011;7075;53.574;10.054;2023-09-12T07:38:12;34.87;;;25.60;;
13999;SDS011;7075;53.574;10.054;2023-09-12T07:40:42;30.37;;;21.27;;
13999;SDS011;7075;53.574;10.054;2023-09-12T07:43:08;37.33;;;27.23;;
13999;SDS011;7075;53.574;10.054;2023-09-12T07:45:35;24.67;;;21.20;;
13999;SDS011;7075;53.574;10.054;2023-09-12T07:48:07;39.73;;;28.47;;
13999;SDS011;7075;53.574;10.054;2023-09-12T07:50:33;35.77;;;27.77;;
13999;SDS011;7075;53.574;10.054;2023-09-12T07:52:59;33.53;;;26.27;;
13999;SDS011;7075;53.574;10.054;2023-09-12T07:55:25;30.50;;;23.53;;
13999;SDS011;7075;53.574;10.054;2023-09-12T07:57:55;40.63;;;29.83;;
13999;SDS011;7075;53.574;10.054;2023-09-12T08:00:21;38.07;;;26.57;;
13999;SDS011;7075;53.574;10.054;2023-09-12T08:02:47;41.03;;;30.37;;
13999;SDS011;7075;53.574;10.054;2023-09-12T08:05:14;38.73;;;29.20;;
13999;SDS011;7075;53.574;10.054;2023-09-12T08:07:40;38.73;;;29.93;;
13999;SDS011;7075;53.574;10.054;2023-09-12T08:10:06;36.70;;;29.10;;
13999;SDS011;7075;53.574;10.054;2023-09-12T08:12:33;32.27;;;25.27;;
13999;SDS011;7075;53.574;10.054;2023-09-12T08:15:00;38.03;;;28.87;;
13999;SDS011;7075;53.574;10.054;2023-09-12T08:17:26;41.20;;;29.60;;
13999;SDS011;7075;53.574;10.054;2023-09-12T08:19:52;42.87;;;29.40;;
13999;SDS011;7075;53.574;10.054;2023-09-12T08:22:19;42.83;;;30.40;;
13999;SDS011;7075;53.574;10.054;2023-09-12T08:24:45;39.90;;;30.43;;
13999;SDS011;7075;53.574;10.054;2023-09-12T08:27:12;44.00;;;30.93;;
13999;SDS011;7075;53.574;10.054;2023-09-12T08:29:38;37.47;;;29.43;;
13999;SDS011;7075;53.574;10.054;2023-09-12T08:32:06;37.20;;;29.07;;
13999;SDS011;7075;53.574;10.054;2023-09-12T08:34:32;33.40;;;26.37;;
13999;SDS011;7075;53.574;10.054;2023-09-12T08:36:58;40.43;;;30.67;;
13999;SDS011;7075;53.574;10.054;2023-09-12T08:39:25;33.53;;;27.00;;
13999;SDS011;7075;53.574;10.054;2023-09-12T08:41:51;35.10;;;26.93;;
13999;SDS011;7075;53.574;10.054;2023-09-12T08:44:18;32.93;;;23.93;;
13999;SDS011;7075;53.574;10.054;2023-09-12T08:46:44;32.00;;;25.73;;
13999;SDS011;7075;53.574;10.054;2023-09-12T08:49:10;30.40;;;24.83;;
13999;SDS011;7075;53.574;10.054;2023-09-12T08:51:37;36.87;;;26.37;;
13999;SDS011;7075;53.574;10.054;2023-09-12T08:54:04;34.83;;;27.00;;
13999;SDS011;7075;53.574;10.054;2023-09-12T08:56:30;34.10;;;26.83;;
13999;SDS011;7075;53.574;10.054;2023-09-12T08:58:58;34.00;;;26.43;;
13999;SDS011;7075;53.574;10.054;2023-09-12T09:01:25;28.13;;;23.50;;
13999;SDS011;7075;53.574;10.054;2023-09-12T09:03:52;33.17;;;26.37;;
13999;SDS011;7075;53.574;10.054;2023-09-12T09:06:19;37.67;;;25.60;;
13999;SDS011;7075;53.574;10.054;2023-09-12T09:08:47;26.00;;;21.43;;
13999;SDS011;7075;53.574;10.054;2023-09-12T09:11:14;30.50;;;25.00;;
13999;SDS011;7075;53.574;10.054;2023-09-12T09:13:40;34.27;;;24.53;;
13999;SDS011;7075;53.574;10.054;2023-09-12T09:16:14;31.83;;;24.47;;
13999;SDS011;7075;53.574;10.054;2023-09-12T09:18:53;28.53;;;24.77;;
13999;SDS011;7075;53.574;10.054;2023-09-12T09:21:20;33.70;;;25.67;;
13999;SDS011;7075;53.574;10.054;2023-09-12T09:23:50;24.80;;;20.07;;
13999;SDS011;7075;53.574;10.054;2023-09-12T09:26:16;31.13;;;22.67;;
13999;SDS011;7075;53.574;10.054;2023-09-12T09:28:42;28.90;;;23.77;;
13999;SDS011;7075;53.574;10.054;2023-09-12T09:31:12;32.13;;;25.10;;
13999;SDS011;7075;53.574;10.054;2023-09-12T09:33:39;26.03;;;21.63;;
13999;SDS011;7075;53.574;10.054;2023-09-12T09:36:06;30.37;;;23.90;;
13999;SDS011;7075;53.574;10.054;2023-09-12T09:38:33;27.20;;;21.10;;
13999;SDS011;7075;53.574;10.054;2023-09-12T09:41:03;22.43;;;20.07;;
13999;SDS011;7075;53.574;10.054;2023-09-12T09:43:30;27.73;;;22.67;;
13999;SDS011;7075;53.574;10.054;2023-09-12T09:45:57;18.67;;;16.63;;
13999;SDS011;7075;53.574;10.054;2023-09-12T09:48:24;19.73;;;15.20;;
13999;SDS011;7075;53.574;10.054;2023-09-12T09:50:53;28.93;;;22.03;;
13999;SDS011;7075;53.574;10.054;2023-09-12T09:53:32;22.77;;;19.17;;
13999;SDS011;7075;53.574;10.054;2023-09-12T09:58:33;29.53;;;24.27;;
13999;SDS011;7075;53.574;10.054;2023-09-12T10:01:00;31.87;;;24.93;;
13999;SDS011;7075;53.574;10.054;2023-09-12T10:03:29;26.77;;;21.73;;
13999;SDS011;7075;53.574;10.054;2023-09-12T10:05:56;24.63;;;21.57;;
13999;SDS011;7075;53.574;10.054;2023-09-12T10:08:23;29.40;;;23.47;;
13999;SDS011;7075;53.574;10.054;2023-09-12T10:10:50;18.37;;;16.37;;
13999;SDS011;7075;53.574;10.054;2023-09-12T10:13:17;20.90;;;17.10;;
13999;SDS011;7075;53.574;10.054;2023-09-12T10:15:45;29.83;;;21.37;;
13999;SDS011;7075;53.574;10.054;2023-09-12T10:18:14;27.23;;;22.47;;
13999;SDS011;7075;53.574;10.054;2023-09-12T10:20:54;24.70;;;17.83;;
13999;SDS011;7075;53.574;10.054;2023-09-12T10:23:34;25.90;;;21.40;;
13999;SDS011;7075;53.574;10.054;2023-09-12T10:26:03;26.33;;;19.73;;
13999;SDS011;7075;53.574;10.054;2023-09-12T10:28:29;22.23;;;18.60;;
13999;SDS011;7075;53.574;10.054;2023-09-12T10:30:57;21.33;;;17.00;;
13999;SDS011;7075;53.574;10.054;2023-09-12T10:33:23;23.47;;;19.13;;
13999;SDS011;7075;53.574;10.054;2023-09-12T10:35:50;18.33;;;16.40;;
13999;SDS011;7075;53.574;10.054;2023-09-12T10:38:18;22.50;;;17.00;;
13999;SDS011;7075;53.574;10.054;2023-09-12T10:40:46;19.77;;;15.47;;
13999;SDS011;7075;53.574;10.054;2023-09-12T10:43:13;18.87;;;16.30;;
13999;SDS011;7075;53.574;10.054;2023-09-12T10:45:43;17.10;;;15.10;;
13999;SDS011;7075;53.574;10.054;2023-09-12T10:48:09;18.60;;;15.40;;
13999;SDS011;7075;53.574;10.054;2023-09-12T10:50:37;20.43;;;15.73;;
13999;SDS011;7075;53.574;10.054;2023-09-12T10:53:13;18.10;;;15.77;;
13999;SDS011;7075;53.574;10.054;2023-09-12T10:55:40;22.03;;;18.60;;
13999;SDS011;7075;53.574;10.054;2023-09-12T10:58:08;19.07;;;16.50;;
13999;SDS011;7075;53.574;10.054;2023-09-12T11:00:35;21.87;;;17.67;;
13999;SDS011;7075;53.574;10.054;2023-09-12T11:05:52;19.47;;;17.17;;
13999;SDS011;7075;53.574;10.054;2023-09-12T11:08:18;19.67;;;16.73;;
13999;SDS011;7075;53.574;10.054;2023-09-12T11:10:44;19.77;;;17.67;;
13999;SDS011;7075;53.574;10.054;2023-09-12T11:13:18;20.70;;;18.47;;
13999;SDS011;7075;53.574;10.054;2023-09-12T11:16:26;24.07;;;20.20;;
13999;SDS011;7075;53.574;10.054;2023-09-12T11:18:33;21.67;;;19.37;;
13999;SDS011;7075;53.574;10.054;2023-09-12T11:21:00;22.97;;;19.13;;
13999;SDS011;7075;53.574;10.054;2023-09-12T11:23:29;23.57;;;20.10;;
13999;SDS011;7075;53.574;10.054;2023-09-12T11:26:06;23.00;;;20.33;;
13999;SDS011;7075;53.574;10.054;2023-09-12T11:28:33;22.57;;;20.20;;
13999;SDS011;7075;53.574;10.054;2023-09-12T11:31:00;23.47;;;20.83;;
13999;SDS011;7075;53.574;10.054;2023-09-12T11:33:26;25.07;;;21.60;;
13999;SDS011;7075;53.574;10.054;2023-09-12T11:35:53;23.27;;;20.77;;
13999;SDS011;7075;53.574;10.054;2023-09-12T11:38:27;25.70;;;21.60;;
13999;SDS011;7075;53.574;10.054;2023-09-12T11:40:54;29.10;;;21.23;;
13999;SDS011;7075;53.574;10.054;2023-09-12T11:43:24;23.20;;;19.10;;
13999;SDS011;7075;53.574;10.054;2023-09-12T11:45:51;24.53;;;20.93;;
13999;SDS011;7075;53.574;10.054;2023-09-12T11:48:18;25.60;;;21.93;;
13999;SDS011;7075;53.574;10.054;2023-09-12T11:50:48;24.77;;;20.77;;
13999;SDS011;7075;53.574;10.054;2023-09-12T11:53:19;21.00;;;18.63;;
13999;SDS011;7075;53.574;10.054;2023-09-12T11:55:45;25.47;;;19.80;;
13999;SDS011;7075;53.574;10.054;2023-09-12T11:58:15;24.07;;;20.23;;
13999;SDS011;7075;53.574;10.054;2023-09-12T12:00:51;20.47;;;18.27;;
13999;SDS011;7075;53.574;10.054;2023-09-12T12:03:17;21.43;;;19.13;;
13999;SDS011;7075;53.574;10.054;2023-09-12T12:05:44;18.80;;;16.77;;
13999;SDS011;7075;53.574;10.054;2023-09-12T12:08:11;26.00;;;19.93;;
13999;SDS011;7075;53.574;10.054;2023-09-12T12:10:38;22.60;;;19.10;;
13999;SDS011;7075;53.574;10.054;2023-09-12T12:13:09;17.40;;;15.63;;
13999;SDS011;7075;53.574;10.054;2023-09-12T12:15:37;19.20;;;16.07;;
13999;SDS011;7075;53.574;10.054;2023-09-12T12:18:03;17.53;;;15.40;;
13999;SDS011;7075;53.574;10.054;2023-09-12T12:20:30;24.53;;;17.50;;
13999;SDS011;7075;53.574;10.054;2023-09-12T12:22:56;18.07;;;16.17;;
13999;SDS011;7075;53.574;10.054;2023-09-12T12:25:22;21.27;;;16.37;;
13999;SDS011;7075;53.574;10.054;2023-09-12T12:27:49;22.17;;;16.93;;
13999;SDS011;7075;53.574;10.054;2023-09-12T12:30:15;19.90;;;16.30;;
13999;SDS011;7075;53.574;10.054;2023-09-12T12:32:42;27.47;;;16.60;;
13999;SDS011;7075;53.574;10.054;2023-09-12T12:35:21;19.57;;;17.47;;
13999;SDS011;7075;53.574;10.054;2023-09-12T12:37:48;16.57;;;14.20;;
13999;SDS011;7075;53.574;10.054;2023-09-12T12:40:14;19.83;;;16.17;;
13999;SDS011;7075;53.574;10.054;2023-09-12T12:42:42;18.93;;;16.00;;
13999;SDS011;7075;53.574;10.054;2023-09-12T12:45:15;16.87;;;15.17;;
13999;SDS011;7075;53.574;10.054;2023-09-12T12:47:42;13.70;;;11.60;;
13999;SDS011;7075;53.574;10.054;2023-09-12T12:50:10;17.47;;;15.27;;
13999;SDS011;7075;53.574;10.054;2023-09-12T12:52:37;17.80;;;15.20;;
13999;SDS011;7075;53.574;10.054;2023-09-12T12:55:04;16.27;;;13.97;;
13999;SDS011;7075;53.574;10.054;2023-09-12T12:57:31;16.83;;;15.03;;
13999;SDS011;7075;53.574;10.054;2023-09-12T12:59:58;17.17;;;14.97;;
13999;SDS011;7075;53.574;10.054;2023-09-12T13:02:25;15.43;;;13.27;;
13999;SDS011;7075;53.574;10.054;2023-09-12T13:04:57;19.57;;;17.23;;
13999;SDS011;7075;53.574;10.054;2023-09-12T13:07:23;18.80;;;16.47;;
13999;SDS011;7075;53.574;10.054;2023-09-12T13:09:50;16.97;;;14.97;;
13999;SDS011;7075;53.574;10.054;2023-09-12T13:12:16;17.17;;;15.37;;
13999;SDS011;7075;53.574;10.054;2023-09-12T13:14:43;17.60;;;14.50;;
13999;SDS011;7075;53.574;10.054;2023-09-12T13:17:09;17.70;;;15.90;;
13999;SDS011;7075;53.574;10.054;2023-09-12T13:19:36;21.97;;;16.43;;
13999;SDS011;7075;53.574;10.054;2023-09-12T13:22:02;17.27;;;15.47;;
13999;SDS011;7075;53.574;10.054;2023-09-12T13:24:28;16.23;;;14.53;;
13999;SDS011;7075;53.574;10.054;2023-09-12T13:26:54;18.03;;;15.23;;
13999;SDS011;7075;53.574;10.054;2023-09-12T13:29:20;19.20;;;15.80;;
13999;SDS011;7075;53.574;10.054;2023-09-12T13:31:47;18.43;;;15.97;;
13999;SDS011;7075;53.574;10.054;2023-09-12T13:34:13;16.53;;;14.90;;
13999;SDS011;7075;53.574;10.054;2023-09-12T13:36:39;17.20;;;15.47;;
13999;SDS011;7075;53.574;10.054;2023-09-12T13:39:05;18.17;;;16.23;;
13999;SDS011;7075;53.574;10.054;2023-09-12T13:41:31;17.37;;;14.70;;
13999;SDS011;7075;53.574;10.054;2023-09-12T13:43:58;14.60;;;13.10;;
13999;SDS011;7075;53.574;10.054;2023-09-12T13:46:24;17.20;;;15.37;;
13999;SDS011;7075;53.574;10.054;2023-09-12T13:48:50;15.27;;;13.77;;
13999;SDS011;7075;53.574;10.054;2023-09-12T13:51:16;15.40;;;13.80;;
13999;SDS011;7075;53.574;10.054;2023-09-12T13:53:42;16.07;;;14.10;;
13999;SDS011;7075;53.574;10.054;2023-09-12T13:56:08;13.90;;;12.50;;
13999;SDS011;7075;53.574;10.054;2023-09-12T13:58:34;13.50;;;12.20;;
13999;SDS011;7075;53.574;10.054;2023-09-12T14:01:01;14.10;;;12.70;;
13999;SDS011;7075;53.574;10.054;2023-09-12T14:03:28;14.10;;;12.20;;
13999;SDS011;7075;53.574;10.054;2023-09-12T14:05:54;13.10;;;11.53;;
13999;SDS011;7075;53.574;10.054;2023-09-12T14:08:20;14.70;;;11.93;;
13999;SDS011;7075;53.574;10.054;2023-09-12T14:10:47;15.40;;;12.40;;
13999;SDS011;7075;53.574;10.054;2023-09-12T14:13:13;15.13;;;13.67;;
13999;SDS011;7075;53.574;10.054;2023-09-12T14:15:39;14.20;;;12.80;;
13999;SDS011;7075;53.574;10.054;2023-09-12T14:18:05;14.83;;;13.33;;
13999;SDS011;7075;53.574;10.054;2023-09-12T14:20:31;12.67;;;11.40;;
13999;SDS011;7075;53.574;10.054;2023-09-12T14:22:57;14.53;;;13.13;;
13999;SDS011;7075;53.574;10.054;2023-09-12T14:25:24;16.40;;;14.80;;
13999;SDS011;7075;53.574;10.054;2023-09-12T14:27:50;17.73;;;14.03;;